Time;durP1;ratioP1;P1;durP2;ratioP2;P2;SDS_P1;SDS_P2;PMS_P1;PMS_P2;Temp;Humidity;BMP_temperature;BMP_pressure;BME280_temperature;BME280_humidity;BME280_pressure;Samples;Min_cycle;Max_cycle;Signal;HPM_P1;HPM_P2
2023/07/22 00:01:00;;;;;;;40.88;31.38;;;;;;;28.89;100.00;97855.59;4842694;29;20053;-67
2023/07/22 00:03:29;;;;;;;36.45;28.67;;;;;;;28.87;100.00;97853.19;4841581;29;20050;-67
2023/07/22 00:06:05;;;;;;;27.17;23.48;;;;;;;28.73;100.00;97857.28;4840639;29;20056;-66
2023/07/22 00:08:37;;;;;;;18.60;16.63;;;;;;;28.57;100.00;97857.84;4829788;29;20054;-67
2023/07/22 00:11:07;;;;;;;12.10;11.00;;;;;;;28.48;100.00;97859.84;4823486;29;20053;-67
2023/07/22 00:13:37;;;;;;;10.85;9.48;;;;;;;28.42;100.00;97869.31;4839920;29;20129;-67
2023/07/22 00:16:07;;;;;;;9.65;8.40;;;;;;;28.47;100.00;97877.31;4840353;29;20525;-67
2023/07/22 00:18:37;;;;;;;8.80;7.95;;;;;;;28.48;100.00;97881.63;4828344;29;20045;-67
2023/07/22 00:21:06;;;;;;;8.60;7.60;;;;;;;28.41;100.00;97886.78;4838919;29;20664;-69
2023/07/22 00:23:36;;;;;;;7.90;7.20;;;;;;;28.33;100.00;97889.53;4825773;29;20061;-67
2023/07/22 00:26:05;;;;;;;7.97;7.25;;;;;;;28.28;100.00;97900.66;4841260;29;20053;-68
2023/07/22 00:28:35;;;;;;;8.20;7.40;;;;;;;28.20;100.00;97902.25;4839107;29;20050;-67
2023/07/22 00:31:04;;;;;;;8.15;6.88;;;;;;;28.03;100.00;97896.84;4814930;29;20112;-67
2023/07/22 00:33:34;;;;;;;7.40;6.68;;;;;;;27.97;100.00;97906.34;4825847;29;20046;-68
2023/07/22 00:36:04;;;;;;;7.03;6.10;;;;;;;28.06;100.00;97904.34;4834748;29;20049;-67
2023/07/22 00:38:34;;;;;;;6.72;6.07;;;;;;;27.89;100.00;97910.66;4840728;29;20069;-67
2023/07/22 00:41:07;;;;;;;6.30;5.70;;;;;;;27.86;100.00;97903.16;4825098;29;20058;-67
2023/07/22 00:43:36;;;;;;;;;;;;;;;27.88;100.00;97905.56;4827584;29;20429;-67
2023/07/22 00:46:05;;;;;;;5.50;5.00;;;;;;;27.78;100.00;97912.16;4824522;29;19935;-67
2023/07/22 00:48:35;;;;;;;6.43;5.82;;;;;;;27.79;100.00;97918.38;4827022;29;20046;-66
2023/07/22 00:51:05;;;;;;;6.15;5.55;;;;;;;27.72;100.00;97931.66;4822604;29;20054;-67
2023/07/22 00:53:34;;;;;;;6.20;5.60;;;;;;;27.69;100.00;97931.22;4839099;29;20054;-66
2023/07/22 00:56:05;;;;;;;8.30;6.13;;;;;;;27.61;100.00;97939.38;4825928;29;20072;-67
2023/07/22 00:58:35;;;;;;;6.30;5.70;;;;;;;27.60;100.00;97941.31;4837403;29;20187;-67
2023/07/22 01:01:04;;;;;;;6.32;5.72;;;;;;;27.72;100.00;97939.84;4821298;29;20153;-67
2023/07/22 01:03:34;;;;;;;6.95;6.25;;;;;;;27.65;100.00;97932.97;4840064;29;20479;-67
2023/07/22 01:06:04;;;;;;;8.07;6.78;;;;;;;27.67;100.00;97919.84;4821479;29;20057;-67
2023/07/22 01:08:33;;;;;;;8.85;8.00;;;;;;;27.61;100.00;97910.25;4840964;29;20057;-66
2023/07/22 01:11:04;;;;;;;10.95;9.02;;;;;;;27.58;100.00;97900.00;4838997;29;20062;-67
2023/07/22 01:13:33;;;;;;;12.77;11.20;;;;;;;27.58;100.00;97891.03;4838523;29;20062;-67
2023/07/22 01:16:03;;;;;;;12.23;11.02;;;;;;;27.59;100.00;97896.16;4826121;29;20065;-67
2023/07/22 01:18:34;;;;;;;22.23;16.67;;;;;;;27.59;100.00;97908.97;4822509;29;20053;-67
2023/07/22 01:21:06;;;;;;;26.25;20.17;;;;;;;27.58;100.00;97907.34;4839685;29;20083;-67
2023/07/22 01:23:37;;;;;;;30.63;23.65;;;;;;;27.56;100.00;97915.06;4836618;29;20099;-67
2023/07/22 01:26:07;;;;;;;33.67;25.73;;;;;;;27.57;100.00;97906.56;4826953;29;20153;-67
2023/07/22 01:28:36;;;;;;;30.92;25.08;;;;;;;27.55;100.00;97908.81;4825826;29;20053;-67
2023/07/22 01:31:06;;;;;;;29.98;24.25;;;;;;;27.52;100.00;97903.22;4827683;29;20053;-67
2023/07/22 01:33:35;;;;;;;30.00;23.00;;;;;;;27.50;100.00;97900.00;4825656;29;20169;-67
2023/07/22 01:36:08;;;;;;;29.17;23.35;;;;;;;27.49;100.00;97923.69;4841415;29;20080;-67
2023/07/22 01:38:38;;;;;;;26.45;21.30;;;;;;;27.53;100.00;97926.56;4843724;29;20076;-67
2023/07/22 01:41:08;;;;;;;22.80;20.05;;;;;;;27.61;100.00;97933.94;4816795;29;20050;-67
2023/07/22 01:43:37;;;;;;;19.40;17.30;;;;;;;27.50;100.00;97936.19;4815548;29;20057;-67
2023/07/22 01:46:07;;;;;;;19.92;17.80;;;;;;;27.47;100.00;97930.56;4829328;29;20134;-67
2023/07/22 01:48:37;;;;;;;24.23;17.52;;;;;;;27.43;100.00;97924.16;4830274;29;20430;-67
2023/07/22 01:51:06;;;;;;;18.05;15.95;;;;;;;27.46;100.00;97928.94;4824413;29;20057;-67
2023/07/22 01:53:36;;;;;;;19.30;15.95;;;;;;;27.47;100.00;97933.28;4847079;29;20801;-67
2023/07/22 01:56:05;;;;;;;18.77;15.65;;;;;;;27.44;100.00;97937.44;4843225;29;20058;-67
2023/07/22 01:58:35;;;;;;;21.33;18.88;;;;;;;27.45;100.00;97939.03;4832394;29;20050;-67
2023/07/22 02:01:04;;;;;;;24.83;21.95;;;;;;;27.46;100.00;97954.22;4827942;29;20061;-67
2023/07/22 02:03:34;;;;;;;25.48;21.02;;;;;;;27.44;100.00;97948.31;4829668;29;20065;-67
2023/07/22 02:06:04;;;;;;;23.70;21.08;;;;;;;27.56;100.00;97953.94;4823135;29;20061;-67
2023/07/22 02:08:36;;;;;;;27.35;22.65;;;;;;;27.37;100.00;97958.88;4823745;29;20483;-68
2023/07/22 02:11:08;;;;;;;29.15;22.98;;;;;;;27.44;100.00;97966.56;4824074;29;20045;-67
2023/07/22 02:13:38;;;;;;;27.63;23.40;;;;;;;27.41;100.00;97978.88;4823947;29;20122;-68
2023/07/22 02:16:11;;;;;;;28.20;23.05;;;;;;;27.46;100.00;97983.34;4824545;29;20050;-67
2023/07/22 02:18:41;;;;;;;30.85;25.15;;;;;;;27.43;100.00;97995.69;4845778;29;20437;-68
2023/07/22 02:21:11;;;;;;;32.63;24.33;;;;;;;27.43;100.00;97992.16;4826123;29;20165;-68
2023/07/22 02:23:40;;;;;;;37.88;25.60;;;;;;;27.39;100.00;98013.75;4842948;29;20157;-67
2023/07/22 02:26:10;;;;;;;28.83;22.40;;;;;;;27.31;100.00;98011.81;4827058;29;20050;-67
2023/07/22 02:28:39;;;;;;;26.27;21.67;;;;;;;27.25;100.00;98019.34;4827168;29;20065;-68
2023/07/22 02:31:10;;;;;;;26.20;22.02;;;;;;;27.29;100.00;98024.94;4827105;29;20542;-68
2023/07/22 02:33:40;;;;;;;27.20;20.88;;;;;;;27.20;100.00;98021.41;4841551;29;20600;-67
2023/07/22 02:36:11;;;;;;;26.58;20.27;;;;;;;27.24;100.00;98025.09;4817721;29;20061;-66
2023/07/22 02:38:41;;;;;;;28.23;22.50;;;;;;;27.16;100.00;98034.03;4794276;29;20050;-66
2023/07/22 02:41:13;;;;;;;31.30;24.77;;;;;;;27.15;100.00;98035.16;4826132;29;20042;-66
2023/07/22 02:43:43;;;;;;;32.17;26.60;;;;;;;27.22;100.00;98035.47;4824159;29;21351;-66
2023/07/22 02:46:12;;;;;;;33.45;28.08;;;;;;;27.20;100.00;98040.44;4817852;29;20061;-66
2023/07/22 02:48:42;;;;;;;38.55;30.00;;;;;;;27.20;100.00;98054.84;4826165;29;20050;-66
2023/07/22 02:51:11;;;;;;;39.60;30.77;;;;;;;27.32;100.00;98050.69;4821263;29;20050;-66
2023/07/22 02:53:41;;;;;;;44.72;33.28;;;;;;;27.30;100.00;98048.31;4830414;29;20053;-66
2023/07/22 02:56:11;;;;;;;42.72;30.85;;;;;;;27.26;100.00;98047.34;4824584;29;20449;-66
2023/07/22 02:58:41;;;;;;;45.22;31.38;;;;;;;27.21;100.00;98045.56;4830204;29;20081;-67
2023/07/22 03:01:11;;;;;;;41.30;30.70;;;;;;;27.15;100.00;98056.91;4836389;29;20240;-67
2023/07/22 03:03:41;;;;;;;37.45;30.65;;;;;;;27.08;100.00;98072.88;4824376;29;20250;-66
2023/07/22 03:06:10;;;;;;;37.42;30.27;;;;;;;26.91;100.00;98079.03;4823113;29;20166;-66
2023/07/22 03:08:40;;;;;;;34.90;29.60;;;;;;;26.85;100.00;98066.72;4843403;29;20420;-66
2023/07/22 03:11:09;;;;;;;32.30;27.58;;;;;;;26.92;100.00;98063.53;4826858;29;20056;-67
2023/07/22 03:13:39;;;;;;;28.77;25.58;;;;;;;26.97;100.00;98053.31;4826910;29;20042;-67
2023/07/22 03:16:09;;;;;;;30.73;22.80;;;;;;;26.84;100.00;98048.78;4838302;29;20046;-67
2023/07/22 03:18:39;;;;;;;22.70;18.85;;;;;;;26.74;100.00;98038.97;4827687;29;20056;-66
2023/07/22 03:21:09;;;;;;;20.35;15.00;;;;;;;26.68;100.00;98034.00;4829103;29;20046;-67
2023/07/22 03:23:39;;;;;;;19.77;14.55;;;;;;;26.54;100.00;98046.88;4814741;29;20058;-67
2023/07/22 03:26:09;;;;;;;12.55;9.68;;;;;;;26.43;100.00;98049.06;4830060;29;20065;-67
2023/07/22 03:28:40;;;;;;;18.95;10.98;;;;;;;26.56;100.00;98028.34;4831178;29;20149;-67
2023/07/22 03:31:11;;;;;;;17.25;8.98;;;;;;;26.47;100.00;98025.59;4825345;29;20383;-67
2023/07/22 03:33:42;;;;;;;12.27;6.55;;;;;;;26.30;100.00;98006.50;4826512;29;20061;-67
2023/07/22 03:36:12;;;;;;;8.23;4.82;;;;;;;26.13;100.00;97995.50;4824232;29;20065;-67
2023/07/22 03:38:42;;;;;;;8.05;3.90;;;;;;;26.01;100.00;98006.13;4827917;29;20053;-67
2023/07/22 03:41:11;;;;;;;5.90;3.78;;;;;;;26.02;100.00;98007.75;4831661;29;20654;-67
2023/07/22 03:43:41;;;;;;;6.72;3.70;;;;;;;25.94;100.00;98020.94;4841795;29;20069;-68
2023/07/22 03:46:11;;;;;;;6.20;4.13;;;;;;;25.82;100.00;98042.41;4826828;29;20240;-67
2023/07/22 03:48:40;;;;;;;5.90;3.95;;;;;;;25.79;100.00;98062.00;4826774;29;20063;-67
2023/07/22 03:51:09;;;;;;;6.25;4.22;;;;;;;25.78;100.00;98081.31;4827563;29;20161;-66
2023/07/22 03:53:48;;;;;;;11.05;5.32;;;;;;;25.96;100.00;98080.34;4823806;29;20585;-68
2023/07/22 03:56:17;;;;;;;10.40;6.07;;;;;;;26.00;100.00;98056.09;4839289;29;20053;-69
2023/07/22 03:58:46;;;;;;;12.70;6.28;;;;;;;25.83;100.00;98102.91;4838310;29;20049;-68
2023/07/22 04:01:20;;;;;;;9.32;5.88;;;;;;;25.72;100.00;98150.31;4826742;29;20560;-69
2023/07/22 04:03:50;;;;;;;5.90;3.60;;;;;;;25.60;100.00;98128.34;4817923;29;20073;-71
2023/07/22 04:06:20;;;;;;;7.32;4.20;;;;;;;25.70;100.00;98115.38;4818188;29;20398;-69
2023/07/22 04:08:49;;;;;;;5.40;3.70;;;;;;;25.74;100.00;98124.53;4844199;29;20117;-69
2023/07/22 04:11:19;;;;;;;6.20;3.50;;;;;;;25.63;100.00;98165.72;4820817;29;20065;-70
2023/07/22 04:13:49;;;;;;;8.25;4.05;;;;;;;25.62;100.00;98181.22;4841433;29;20061;-69
2023/07/22 04:16:19;;;;;;;13.32;4.55;;;;;;;25.74;100.00;98115.56;4829146;29;20058;-69
2023/07/22 04:18:48;;;;;;;4.68;2.70;;;;;;;25.38;100.00;98099.22;4814383;29;20232;-68
2023/07/22 04:21:17;;;;;;;5.72;2.53;;;;;;;25.32;100.00;98125.63;4819676;29;20050;-69
2023/07/22 04:23:46;;;;;;;4.93;3.20;;;;;;;25.43;100.00;98135.19;4823323;29;20153;-69
2023/07/22 04:26:16;;;;;;;9.30;3.97;;;;;;;25.47;100.00;98140.81;4821378;29;20045;-69
2023/07/22 04:28:47;;;;;;;8.52;4.22;;;;;;;25.64;100.00;98129.34;4829664;29;20053;-70
2023/07/22 04:31:16;;;;;;;4.28;3.10;;;;;;;25.68;100.00;98130.34;4842985;29;20050;-70
2023/07/22 04:33:45;;;;;;;8.98;4.00;;;;;;;25.74;100.00;98131.84;4833826;29;20489;-69
2023/07/22 04:36:15;;;;;;;6.55;3.85;;;;;;;25.71;100.00;98143.31;4816204;29;20057;-69
2023/07/22 04:38:44;;;;;;;5.28;2.75;;;;;;;25.64;100.00;98154.56;4837443;29;20078;-69
2023/07/22 04:41:14;;;;;;;7.82;3.13;;;;;;;25.62;100.00;98167.66;4826101;29;20065;-69
2023/07/22 04:43:43;;;;;;;5.18;2.60;;;;;;;25.60;100.00;98174.47;4842001;29;20482;-69
2023/07/22 04:46:14;;;;;;;9.77;3.30;;;;;;;25.60;100.00;98174.47;4839993;29;20057;-69
2023/07/22 04:48:45;;;;;;;9.73;2.85;;;;;;;25.62;100.00;98173.06;4840921;29;20097;-68
2023/07/22 04:51:15;;;;;;;3.88;1.83;;;;;;;25.63;100.00;98169.22;4825444;29;20053;-69
2023/07/22 04:53:44;;;;;;;3.20;2.00;;;;;;;25.68;100.00;98162.91;4829069;29;20049;-71
2023/07/22 04:56:14;;;;;;;3.92;2.15;;;;;;;25.73;100.00;98165.50;4824620;29;20098;-70
2023/07/22 04:58:43;;;;;;;4.30;2.05;;;;;;;25.80;100.00;98172.13;4837923;29;20137;-71
2023/07/22 05:01:13;;;;;;;4.15;1.80;;;;;;;25.84;100.00;98165.00;4838118;29;20049;-71
2023/07/22 05:03:43;;;;;;;4.22;2.20;;;;;;;25.88;100.00;98163.28;4837155;29;20062;-71
2023/07/22 05:06:12;;;;;;;4.68;2.58;;;;;;;25.87;100.00;98167.09;4830168;29;20049;-68
2023/07/22 05:08:42;;;;;;;5.90;3.80;;;;;;;25.87;100.00;98164.38;4842285;29;20129;-69
2023/07/22 05:11:12;;;;;;;10.02;4.75;;;;;;;25.87;100.00;98167.09;4841976;29;20057;-70
2023/07/22 05:13:41;;;;;;;10.15;5.80;;;;;;;25.87;100.00;98179.84;4840916;29;20045;-69
2023/07/22 05:16:11;;;;;;;7.43;5.13;;;;;;;25.83;100.00;98182.38;4842185;29;20049;-69
2023/07/22 05:18:40;;;;;;;5.40;4.38;;;;;;;25.83;100.00;98184.28;4844270;29;20061;-69
2023/07/22 05:21:09;;;;;;;10.65;4.90;;;;;;;25.83;100.00;98200.56;4842213;29;20402;-68
2023/07/22 05:23:38;;;;;;;7.30;5.22;;;;;;;25.81;100.00;98197.34;4831172;29;20141;-69
2023/07/22 05:26:07;;;;;;;6.75;4.90;;;;;;;25.80;100.00;98201.97;4839605;29;20061;-69
2023/07/22 05:28:37;;;;;;;4.82;4.00;;;;;;;25.72;100.00;98194.53;4837794;29;20042;-69
2023/07/22 05:31:07;;;;;;;5.97;4.10;;;;;;;25.72;100.00;98199.16;4841621;29;20173;-68
2023/07/22 05:33:37;;;;;;;6.40;4.30;;;;;;;25.77;100.00;98185.50;4827069;29;20061;-68
2023/07/22 05:36:11;;;;;;;6.50;4.22;;;;;;;25.77;100.00;98180.88;4840677;29;20064;-69
2023/07/22 05:38:41;;;;;;;10.13;4.10;;;;;;;25.77;100.00;98180.06;4843290;29;20054;-69
2023/07/22 05:41:11;;;;;;;9.13;4.13;;;;;;;25.68;100.00;98176.47;4842137;29;20062;-69
2023/07/22 05:43:40;;;;;;;8.18;3.90;;;;;;;25.70;100.00;98164.22;4829625;29;20057;-69
2023/07/22 05:46:10;;;;;;;5.57;4.50;;;;;;;25.79;100.00;98165.09;4842430;29;20061;-69
2023/07/22 05:48:41;;;;;;;5.25;3.72;;;;;;;25.83;100.00;98159.88;4840315;29;20054;-68
2023/07/22 05:51:10;;;;;;;6.40;4.30;;;;;;;25.83;100.00;98157.97;4842580;29;20053;-67
2023/07/22 05:53:40;;;;;;;5.22;4.40;;;;;;;25.88;100.00;98160.56;4798892;29;20121;-69
2023/07/22 05:56:10;;;;;;;6.90;4.43;;;;;;;25.88;100.00;98151.63;4820392;29;20054;-69
2023/07/22 05:58:40;;;;;;;5.55;4.32;;;;;;;25.80;100.00;98147.69;4838378;29;20062;-69
2023/07/22 06:01:10;;;;;;;5.53;4.00;;;;;;;25.83;100.00;98146.31;4839388;29;20673;-69
2023/07/22 06:03:43;;;;;;;;;;;;;;;25.84;100.00;98140.59;4816660;29;20081;-69
2023/07/22 06:06:13;;;;;;;5.63;4.82;;;;;;;25.89;100.00;98137.72;4837580;29;20411;-69
2023/07/22 06:08:42;;;;;;;5.30;4.57;;;;;;;25.97;100.00;98135.41;4828507;29;20062;-69
2023/07/22 06:11:12;;;;;;;7.03;5.10;;;;;;;26.00;100.00;98134.78;4835720;29;20161;-69
2023/07/22 06:13:41;;;;;;;6.22;5.03;;;;;;;25.95;100.00;98138.44;4821216;29;20161;-69
2023/07/22 06:16:11;;;;;;;7.70;5.88;;;;;;;25.99;100.00;98141.31;4835674;29;20050;-69
2023/07/22 06:18:41;;;;;;;8.70;6.40;;;;;;;25.99;100.00;98147.56;4838370;29;20061;-70
2023/07/22 06:21:10;;;;;;;7.88;6.07;;;;;;;25.98;100.00;98151.38;4825129;29;20054;-69
2023/07/22 06:23:40;;;;;;;8.85;6.00;;;;;;;25.94;100.00;98156.63;4840564;29;20049;-68
2023/07/22 06:26:10;;;;;;;8.77;6.63;;;;;;;25.90;100.00;98162.97;4819791;29;20118;-68
2023/07/22 06:28:39;;;;;;;7.45;5.90;;;;;;;25.84;100.00;98170.44;4837688;29;20132;-68
2023/07/22 06:31:09;;;;;;;7.55;6.18;;;;;;;25.79;100.00;98159.69;4824831;29;20053;-67
2023/07/22 06:33:38;;;;;;;6.82;5.65;;;;;;;25.84;100.00;98156.88;4843785;29;20118;-67
2023/07/22 06:36:08;;;;;;;8.30;6.07;;;;;;;25.86;100.00;98149.19;4836631;29;20153;-68
2023/07/22 06:38:37;;;;;;;10.32;6.28;;;;;;;25.81;100.00;98156.66;4840585;29;20058;-68
2023/07/22 06:41:07;;;;;;;8.25;5.75;;;;;;;25.82;100.00;98145.50;4836781;29;20054;-68
2023/07/22 06:43:36;;;;;;;8.90;5.85;;;;;;;25.78;100.00;98147.22;4838941;29;20136;-67
2023/07/22 06:46:05;;;;;;;7.60;6.20;;;;;;;25.72;100.00;98150.31;4823514;29;20782;-63
2023/07/22 06:48:35;;;;;;;7.95;6.50;;;;;;;25.73;100.00;98160.09;4837173;29;20076;-68
2023/07/22 06:51:06;;;;;;;8.02;6.22;;;;;;;25.77;100.00;98169.22;4821103;29;20046;-69
2023/07/22 06:53:36;;;;;;;7.53;6.28;;;;;;;25.67;100.00;98172.94;4837510;29;20049;-66
2023/07/22 06:56:07;;;;;;;8.65;7.00;;;;;;;25.74;100.00;98175.25;4835055;29;20804;-67
2023/07/22 06:58:36;;;;;;;11.50;9.00;;;;;;;25.70;100.00;98174.25;4845904;29;20046;-67
2023/07/22 07:01:06;;;;;;;11.88;9.13;;;;;;;25.63;100.00;98163.81;4836597;29;20064;-68
2023/07/22 07:03:35;;;;;;;8.70;7.60;;;;;;;25.93;100.00;98156.94;4838838;29;20053;-65
2023/07/22 07:06:06;;;;;;;8.35;7.45;;;;;;;26.03;100.00;98161.31;4834816;29;20068;-66
2023/07/22 07:08:37;;;;;;;8.07;7.28;;;;;;;26.05;100.00;98159.09;4838564;29;20090;-63
2023/07/22 07:11:06;;;;;;;8.15;6.80;;;;;;;26.12;100.00;98164.91;4832698;29;20049;-64
2023/07/22 07:13:36;;;;;;;6.45;5.70;;;;;;;26.14;100.00;98179.78;4830232;29;20053;-67
2023/07/22 07:16:26;;;;;;;5.43;4.93;;;;;;;26.20;100.00;98194.06;4831649;29;20062;-67
2023/07/22 07:18:56;;;;;;;5.32;4.05;;;;;;;26.15;100.00;98196.91;4800255;29;20131;-66
2023/07/22 07:21:26;;;;;;;4.55;3.53;;;;;;;26.20;100.00;98192.16;4816650;29;20054;-66
2023/07/22 07:23:56;;;;;;;3.10;2.72;;;;;;;26.17;100.00;98194.66;4818207;29;20050;-65
2023/07/22 07:26:26;;;;;;;3.35;3.05;;;;;;;26.15;100.00;98202.31;4814998;29;20133;-64
2023/07/22 07:28:56;;;;;;;2.80;2.60;;;;;;;26.24;100.00;98200.53;4814197;29;20050;-66
2023/07/22 07:31:27;;;;;;;2.95;2.63;;;;;;;26.27;100.00;98205.31;4812542;29;20540;-65
2023/07/22 07:34:01;;;;;;;3.25;2.95;;;;;;;26.24;100.00;98205.94;4809258;29;20647;-66
2023/07/22 07:36:30;;;;;;;3.55;3.25;;;;;;;26.32;100.00;98203.31;4811419;29;20881;-66
2023/07/22 07:39:00;;;;;;;3.85;3.03;;;;;;;26.33;100.00;98206.81;4816253;29;20054;-65
2023/07/22 07:41:29;;;;;;;3.58;2.70;;;;;;;26.31;100.00;98212.56;4813934;29;20095;-67
2023/07/22 07:44:00;;;;;;;2.28;2.08;;;;;;;26.33;100.00;98201.41;4811233;29;20070;-67
2023/07/22 07:46:30;;;;;;;3.60;2.55;;;;;;;26.38;100.00;98206.69;4811877;29;20133;-66
2023/07/22 07:49:01;;;;;;;2.40;2.20;;;;;;;26.43;100.00;98203.03;4815940;29;20129;-66
2023/07/22 07:51:31;;;;;;;2.55;2.03;;;;;;;26.42;100.00;98213.13;4833365;29;20100;-68
2023/07/22 07:54:03;;;;;;;1.90;1.80;;;;;;;26.45;100.00;98219.84;4821769;29;20734;-67
2023/07/22 07:56:33;;;;;;;2.35;2.15;;;;;;;26.49;100.00;98218.13;4835283;29;20058;-66
2023/07/22 07:59:02;;;;;;;1.95;1.70;;;;;;;26.49;100.00;98229.78;4815687;29;20058;-69
2023/07/22 08:01:32;;;;;;;2.42;2.00;;;;;;;26.50;100.00;98217.03;4815730;29;20046;-67
2023/07/22 08:04:02;;;;;;;2.00;1.80;;;;;;;26.48;100.00;98222.75;4809914;29;20066;-64
2023/07/22 08:06:32;;;;;;;2.15;1.73;;;;;;;26.50;100.00;98231.41;4827366;29;20723;-66
2023/07/22 08:09:05;;;;;;;1.92;1.63;;;;;;;26.50;100.00;98231.41;4817632;29;20088;-66
2023/07/22 08:11:35;;;;;;;1.80;1.48;;;;;;;26.51;100.00;98233.00;4815876;29;20054;-68
2023/07/22 08:14:05;;;;;;;2.55;1.70;;;;;;;26.50;100.00;98225.97;4818708;29;20106;-69
2023/07/22 08:16:35;;;;;;;3.85;1.67;;;;;;;26.51;100.00;98227.56;4836353;29;20053;-68
2023/07/22 08:19:04;;;;;;;1.40;1.30;;;;;;;26.54;100.00;98231.59;4839228;29;20061;-69
2023/07/22 08:21:34;;;;;;;3.00;1.30;;;;;;;26.56;100.00;98235.59;4834441;29;20749;-71
2023/07/22 08:24:03;;;;;;;2.25;1.60;;;;;;;26.60;100.00;98241.25;4818822;29;20068;-66
2023/07/22 08:26:33;;;;;;;1.52;1.30;;;;;;;26.59;100.00;98245.06;4837522;29;20053;-72
2023/07/22 08:29:03;;;;;;;1.70;1.45;;;;;;;26.54;100.00;98245.16;4841569;29;20065;-70
2023/07/22 08:31:33;;;;;;;1.25;1.10;;;;;;;26.58;100.00;98246.16;4840866;29;20060;-70
2023/07/22 08:34:02;;;;;;;1.13;1.00;;;;;;;26.58;100.00;98240.72;4839760;29;20670;-71
2023/07/22 08:36:32;;;;;;;1.17;1.00;;;;;;;26.53;100.00;98241.66;4836555;29;20057;-66
2023/07/22 08:39:01;;;;;;;0.88;0.80;;;;;;;26.55;100.00;98252.22;4838132;29;20058;-69
2023/07/22 08:41:31;;;;;;;1.65;0.90;;;;;;;26.46;100.00;98249.44;4843564;29;20530;-68
2023/07/22 08:44:02;;;;;;;1.02;0.90;;;;;;;26.43;100.00;98247.31;4823835;29;20054;-69
2023/07/22 08:46:34;;;;;;;1.35;1.15;;;;;;;26.35;100.00;98256.19;4842317;29;20522;-69
2023/07/22 08:49:07;;;;;;;2.03;1.55;;;;;;;26.30;100.00;98242.72;4836694;29;20072;-67
2023/07/22 08:51:38;;;;;;;2.15;1.70;;;;;;;26.32;100.00;98254.09;4822205;29;20110;-67
2023/07/22 08:54:10;;;;;;;2.42;2.08;;;;;;;26.30;100.00;98243.53;4836273;29;20062;-66
2023/07/22 08:56:40;;;;;;;4.45;3.00;;;;;;;26.29;100.00;98241.91;4822000;29;20135;-68
2023/07/22 08:59:10;;;;;;;4.72;3.63;;;;;;;26.21;100.00;98241.84;4839618;29;20756;-67
2023/07/22 09:01:40;;;;;;;6.32;4.68;;;;;;;26.21;100.00;98237.22;4833331;29;20493;-66
2023/07/22 09:04:09;;;;;;;5.95;5.03;;;;;;;26.26;100.00;98231.66;4818341;29;20059;-68
2023/07/22 09:06:39;;;;;;;6.80;5.30;;;;;;;26.29;100.00;98220.19;4836043;29;20530;-66
2023/07/22 09:09:11;;;;;;;8.65;5.63;;;;;;;26.32;100.00;98222.31;4816543;29;20082;-67
2023/07/22 09:11:42;;;;;;;7.82;5.75;;;;;;;26.34;100.00;98222.78;4821507;29;20067;-67
2023/07/22 09:14:12;;;;;;;8.55;6.22;;;;;;;26.38;100.00;98220.25;4816990;29;20394;-67
2023/07/22 09:16:58;;;;;;;8.00;5.85;;;;;;;26.36;100.00;98220.59;4835908;29;20050;-67
2023/07/22 09:19:30;;;;;;;5.88;4.93;;;;;;;26.38;100.00;98212.13;4811554;29;20541;-66
2023/07/22 09:22:00;;;;;;;7.22;4.57;;;;;;;26.39;100.00;98194.72;4833721;29;20054;-66
2023/07/22 09:24:30;;;;;;;5.03;4.28;;;;;;;26.43;100.00;98189.47;4835212;29;20546;-67
2023/07/22 09:27:00;;;;;;;4.57;3.20;;;;;;;26.31;100.00;98190.03;4820004;29;20141;-65
2023/07/22 09:29:39;;;;;;;2.78;2.50;;;;;;;26.27;100.00;98176.25;4833870;29;20053;-67
2023/07/22 09:32:10;;;;;;;2.25;1.80;;;;;;;26.33;100.00;98175.03;4815214;29;20126;-65
2023/07/22 09:34:55;;;;;;;3.28;1.90;;;;;;;26.46;100.00;98181.53;4825981;29;20057;-66
2023/07/22 09:37:40;;;;;;;2.70;2.00;;;;;;;26.48;100.00;98182.00;4804004;29;20215;-66
2023/07/22 09:40:28;;;;;;;2.75;1.92;;;;;;;26.55;100.00;98179.69;4816276;29;20053;-66
2023/07/22 09:43:05;;;;;;;3.35;2.83;;;;;;;26.55;100.00;98182.41;4833320;29;20144;-67
2023/07/22 09:45:37;;;;;;;2.78;2.53;;;;;;;26.59;100.00;98179.84;4819374;29;20050;-66
2023/07/22 09:48:10;;;;;;;4.68;3.70;;;;;;;26.56;100.00;98162.25;4834687;29;20133;-66
2023/07/22 09:50:40;;;;;;;4.70;3.92;;;;;;;26.54;100.00;98160.97;4818854;29;20394;-66
2023/07/22 09:53:14;;;;;;;5.57;4.38;;;;;;;26.60;100.00;98149.66;4840747;29;20094;-67
2023/07/22 09:55:45;;;;;;;5.50;4.22;;;;;;;26.67;100.00;98139.16;4820055;29;20061;-67
2023/07/22 09:58:15;;;;;;;4.80;3.85;;;;;;;26.72;100.00;98140.94;4834196;29;20337;-66
2023/07/22 10:00:48;;;;;;;3.92;3.17;;;;;;;26.68;100.00;98134.53;4826594;29;20141;-67
2023/07/22 10:03:19;;;;;;;4.22;3.40;;;;;;;26.71;100.00;98128.47;4825183;29;20532;-67
2023/07/22 10:05:51;;;;;;;2.75;2.40;;;;;;;26.74;100.00;98123.22;4827817;29;20413;-66
2023/07/22 10:08:24;;;;;;;2.22;2.00;;;;;;;26.70;100.00;98114.06;4819893;29;20050;-67
2023/07/22 10:10:56;;;;;;;2.53;1.92;;;;;;;26.77;100.00;98109.03;4844294;29;20053;-68
2023/07/22 10:13:27;;;;;;;1.93;1.77;;;;;;;26.83;100.00;98101.50;4840154;29;20064;-67
2023/07/22 10:15:57;;;;;;;2.45;2.08;;;;;;;26.83;100.00;98102.31;4822371;29;20141;-65
2023/07/22 10:18:30;;;;;;;2.28;2.10;;;;;;;26.89;100.00;98088.63;4824508;29;20057;-67
2023/07/22 10:21:01;;;;;;;2.97;2.40;;;;;;;26.87;100.00;98090.84;4840375;29;20065;-67
2023/07/22 10:23:32;;;;;;;2.50;2.30;;;;;;;26.91;100.00;98098.06;4839687;29;20099;-67
2023/07/22 10:26:03;;;;;;;2.53;2.33;;;;;;;26.96;100.00;98086.25;4819391;29;20046;-68
2023/07/22 10:28:33;;;;;;;2.70;2.50;;;;;;;26.98;100.00;98081.31;4835078;29;20093;-67
2023/07/22 10:31:02;;;;;;;2.72;2.53;;;;;;;27.00;100.00;98084.50;4807295;29;20128;-68
2023/07/22 10:33:32;;;;;;;3.70;2.65;;;;;;;27.00;100.00;98069.00;4835702;29;20382;-67
2023/07/22 10:36:13;;;;;;;2.58;2.38;;;;;;;27.00;100.00;98060.84;4820901;29;20077;-68
2023/07/22 10:38:43;;;;;;;3.10;2.78;;;;;;;27.04;100.00;98052.88;4837007;29;20042;-68
2023/07/22 10:41:17;;;;;;;3.30;3.00;;;;;;;27.04;100.00;98040.06;4820797;29;20057;-67
2023/07/22 10:43:58;;;;;;;3.22;2.92;;;;;;;27.10;100.00;98048.88;4824595;29;20045;-66
2023/07/22 10:46:43;;;;;;;5.13;3.80;;;;;;;27.12;100.00;98030.34;4835484;29;20152;-66
2023/07/22 10:49:17;;;;;;;4.55;4.13;;;;;;;27.14;100.00;98028.91;4822429;29;20054;-66
2023/07/22 10:51:51;;;;;;;4.13;3.45;;;;;;;27.18;100.00;98015.47;4835841;29;20574;-66
2023/07/22 10:54:35;;;;;;;3.40;3.10;;;;;;;27.18;100.00;98012.75;4835161;29;20161;-66
2023/07/22 10:57:24;;;;;;;4.47;3.50;;;;;;;27.16;100.00;98009.56;4837008;29;20096;-67
2023/07/22 10:59:56;;;;;;;4.28;3.45;;;;;;;27.19;100.00;97998.03;4817650;29;20552;-66
2023/07/22 11:02:30;;;;;;;3.85;3.45;;;;;;;27.15;100.00;97987.00;4832278;29;20053;-66
2023/07/22 11:05:05;;;;;;;3.58;3.28;;;;;;;27.13;100.00;97985.75;4830244;29;20042;-66
2023/07/22 11:07:43;;;;;;;3.67;3.28;;;;;;;27.19;100.00;97984.44;4820587;29;20046;-67
2023/07/22 11:10:18;;;;;;;3.30;3.10;;;;;;;27.22;100.00;97981.88;4841231;29;20145;-67
2023/07/22 11:12:48;;;;;;;3.78;3.47;;;;;;;27.26;100.00;97985.56;4841031;29;20056;-67
2023/07/22 11:15:18;;;;;;;4.97;4.47;;;;;;;27.26;100.00;97977.41;4837028;29;20183;-67
2023/07/22 11:17:49;;;;;;;4.20;3.80;;;;;;;27.29;100.00;97976.00;4835472;29;20045;-67
2023/07/22 11:20:22;;;;;;;4.80;3.85;;;;;;;27.29;100.00;97965.13;4839763;29;20046;-67
2023/07/22 11:22:52;;;;;;;4.20;3.90;;;;;;;27.31;100.00;97959.38;4840682;29;20055;-67
2023/07/22 11:25:21;;;;;;;4.22;3.83;;;;;;;27.31;100.00;97964.81;4841328;29;20053;-66
2023/07/22 11:27:51;;;;;;;5.18;3.88;;;;;;;27.30;100.00;97961.28;4841284;29;20069;-67
2023/07/22 11:30:23;;;;;;;4.13;3.83;;;;;;;27.31;100.00;97962.84;4841033;29;20053;-66
2023/07/22 11:32:53;;;;;;;4.20;3.90;;;;;;;27.31;100.00;97953.94;4824426;29;20132;-66
2023/07/22 11:35:22;;;;;;;4.40;4.00;;;;;;;27.33;100.00;97949.75;4834919;29;20785;-66
2023/07/22 11:38:02;;;;;;;4.32;3.90;;;;;;;27.36;100.00;97946.38;4835550;29;20486;-66